Cashiers, NC

5:35 AM EDT on August 03, 2015 (GMT -0400)
APRSWXNET | | Change Station
CLOSE
Current Station
Personal Weather Station
Location: Cashiers, NC
Elevation: 3900 ft
Nearby Weather Stations

Elev 3900 ft 35.08 °N, 83.08 °W | Updated 27 minutes ago

Clear
Clear
65 °F
Feels Like 65 °F
N
0
Wind Variable Wind from East
Gusts 0.0 mph

Today
High -- | Low -- °F
--% Chance of Precip.
Yesterday
High -- | Low -- °F
Precip. -- in
6:42 AM 8:33 PM
Waning Gibbous, 88% visible
Pressure 30.03 in
Visibility -9999.0 miles
Clouds
Dew Point 60 °F
Humidity 83%
Rainfall in
Snow Depth Not available.
UV Not available.
Pollen 4.80 out of 12
Air Quality Not available.
Flu Activity Not available.
METAR K1A5 030915Z AUTO 00000KT 14/14 A3003 RMK AO2 T01420142 PWINO

More Conditions Fewer Conditions

Pressure 30.03 in
Visibility -9999.0 miles
Clouds
Dew Point 60 °F
Humidity 83%
Rainfall in
Snow Depth Not available.
UV Not available.
Pollen 4.80 out of 12
Air Quality Not available.
Flu Activity Not available.
METAR K1A5 030915Z AUTO 00000KT 14/14 A3003 RMK AO2 T01420142 PWINO

More Conditions Fewer Conditions

10-Day Weather Forecast

×

Almanac

Astronomy

Aug. 03, 2015 Rise Set
Actual Time
Civil Twilight
Nautical Twilight
Astronomical Twilight
Moon
Length of Visible Light
Length of Day
Tomorrow will be .
, % of the Moon is Illuminated

Today's Extremes

State Highs State Lows

Community

WunderPhotos

Upload Photos

1,843,601 photos uploaded!

WunderBlogs® & News

Nearby

Air Quality

  Air Quality AQ Index Pollutant
Not available.

Snow Depth

Station Depth Elevation

Earthquake Activity

City Distance Mag. Time & Date
Minimum magnitude displayed is 2.5.

Coastal Water Temperatures

Place Temperature

Stations

Nearby Weather Stations

Station Location Temp. Windchill Dew Point Humidity Wind Precip. Elev Updated Type